Time;durP1;ratioP1;P1;durP2;ratioP2;P2;SDS_P1;SDS_P2;PMS_P1;PMS_P2;Temp;Humidity;BMP_temperature;BMP_pressure;BME280_temperature;BME280_humidity;BME280_pressure;Samples;Min_cycle;Max_cycle;Signal;HPM_P1;HPM_P2
2022/06/03 00:02:07;;;;;;;17.73;7.35;;;17.30;99.90;;;;;;4166172;28;20029;-62
2022/06/03 00:04:25;;;;;;;9.27;6.65;;;17.30;99.90;;;;;;4190488;28;20070;-62
2022/06/03 00:06:44;;;;;;;13.10;7.25;;;17.30;99.90;;;;;;4193256;28;20032;-63
2022/06/03 00:09:03;;;;;;;9.98;6.22;;;17.30;99.90;;;;;;4188191;28;20465;-63
2022/06/03 00:11:26;;;;;;;14.13;7.28;;;17.20;99.90;;;;;;4177069;28;20049;-63
2022/06/03 00:14:06;;;;;;;9.85;7.13;;;17.20;99.90;;;;;;4175427;28;20029;-63
2022/06/03 00:16:11;;;;;;;8.57;7.30;;;17.20;99.90;;;;;;4174917;28;20040;-63
2022/06/03 00:18:31;;;;;;;8.45;6.55;;;17.20;99.90;;;;;;4179723;28;20048;-64
2022/06/03 00:20:44;;;;;;;15.43;6.97;;;17.20;99.90;;;;;;4176833;28;20079;-63
2022/06/03 00:23:03;;;;;;;13.25;7.10;;;17.10;99.90;;;;;;4175573;28;20534;-63
2022/06/03 00:25:26;;;;;;;16.35;6.65;;;17.10;99.90;;;;;;4176754;28;20028;-63
2022/06/03 00:27:56;;;;;;;7.55;6.30;;;17.10;99.90;;;;;;4145475;28;20090;-63
2022/06/03 00:30:33;;;;;;;10.27;7.28;;;17.00;99.90;;;;;;4159600;28;20550;-63
2022/06/03 00:33:12;;;;;;;9.90;6.80;;;17.00;99.90;;;;;;4160536;28;20087;-63
2022/06/03 00:35:43;;;;;;;13.25;7.38;;;16.90;99.90;;;;;;4159601;28;20107;-64
2022/06/03 00:37:47;;;;;;;14.20;7.68;;;16.90;99.90;;;;;;4162757;28;20033;-63
2022/06/03 00:40:11;;;;;;;11.73;6.97;;;16.80;99.90;;;;;;4175429;28;20036;-64
2022/06/03 00:42:48;;;;;;;14.45;7.05;;;16.80;99.90;;;;;;4176466;28;20106;-63
2022/06/03 00:45:14;;;;;;;11.02;7.60;;;16.80;99.90;;;;;;4175566;28;20045;-63
2022/06/03 00:47:23;;;;;;;14.27;7.07;;;16.80;99.90;;;;;;4175561;28;20029;-64
2022/06/03 00:49:50;;;;;;;10.57;7.13;;;16.80;99.90;;;;;;4175965;28;20095;-63
2022/06/03 00:52:13;;;;;;;9.13;7.25;;;16.70;99.90;;;;;;4176505;28;20075;-64
2022/06/03 00:54:47;;;;;;;9.27;7.72;;;16.80;99.90;;;;;;4176517;28;20029;-65
2022/06/03 00:57:06;;;;;;;13.18;6.72;;;16.70;99.90;;;;;;4175179;28;20037;-64
2022/06/03 00:59:46;;;;;;;9.48;7.20;;;16.70;99.90;;;;;;4175531;28;20095;-63
2022/06/03 01:02:13;;;;;;;14.80;7.50;;;16.60;99.90;;;;;;4181383;28;20028;-65
2022/06/03 01:04:38;;;;;;;10.07;6.10;;;16.60;99.90;;;;;;4180106;28;20029;-64
2022/06/03 01:06:59;;;;;;;12.40;6.88;;;16.50;99.90;;;;;;4174795;28;20354;-63
2022/06/03 01:09:19;;;;;;;12.93;7.32;;;16.40;99.90;;;;;;4174303;28;20091;-63
2022/06/03 01:11:41;;;;;;;14.98;6.93;;;16.40;99.90;;;;;;4187151;28;20489;-64
2022/06/03 01:14:01;;;;;;;9.88;7.20;;;16.30;99.90;;;;;;4190305;28;20082;-62
2022/06/03 01:16:20;;;;;;;15.25;7.00;;;16.30;99.90;;;;;;4180068;28;20558;-63
2022/06/03 01:18:41;;;;;;;14.70;7.03;;;16.20;99.90;;;;;;4173113;28;20041;-63
2022/06/03 01:20:55;;;;;;;7.90;6.82;;;16.20;99.90;;;;;;4175275;28;20566;-65
2022/06/03 01:23:26;;;;;;;12.43;7.43;;;16.20;99.90;;;;;;4173846;28;20033;-64
2022/06/03 01:25:42;;;;;;;9.65;6.47;;;16.20;99.90;;;;;;4174887;28;20067;-63
2022/06/03 01:27:50;;;;;;;14.57;7.18;;;16.20;99.90;;;;;;4174152;28;20033;-63
2022/06/03 01:30:03;;;;;;;8.82;7.18;;;16.20;99.90;;;;;;4177248;28;20759;-63
2022/06/03 01:32:33;;;;;;;10.27;6.28;;;16.20;99.90;;;;;;4189970;28;20032;-62
2022/06/03 01:35:00;;;;;;;11.27;6.67;;;16.20;99.90;;;;;;4191327;28;20106;-63
2022/06/03 01:37:20;;;;;;;9.20;6.53;;;16.20;99.90;;;;;;4191026;28;20098;-63
2022/06/03 01:39:24;;;;;;;13.93;6.97;;;16.20;99.90;;;;;;4189986;28;20025;-65
2022/06/03 01:41:56;;;;;;;9.98;6.22;;;16.20;99.90;;;;;;4174543;28;20489;-63
2022/06/03 01:44:00;;;;;;;10.32;6.65;;;16.30;99.90;;;;;;4173419;28;20029;-63
2022/06/03 01:46:24;;;;;;;11.90;6.57;;;16.30;99.90;;;;;;4174533;28;20028;-62
2022/06/03 01:48:33;;;;;;;6.85;5.93;;;16.30;99.90;;;;;;4173794;28;20075;-64
2022/06/03 01:50:54;;;;;;;6.90;5.90;;;16.30;99.90;;;;;;4185656;28;20044;-64
2022/06/03 01:53:32;;;;;;;7.82;5.95;;;16.30;99.90;;;;;;4189733;28;20082;-63
2022/06/03 01:56:11;;;;;;;10.85;6.50;;;16.20;99.90;;;;;;4190053;28;20127;-64
2022/06/03 02:10:52;;;;;;;15.07;7.90;;;16.20;99.90;;;;;;4239182;27;20411;-63
2022/06/03 02:12:56;;;;;;;10.27;7.45;;;15.70;99.90;;;;;;4237124;28;20579;-63
2022/06/03 02:15:15;;;;;;;14.93;8.60;;;15.70;99.90;;;;;;4247025;27;20022;-63
2022/06/03 02:17:39;;;;;;;14.77;9.15;;;15.60;99.90;;;;;;4235679;28;20607;-62
2022/06/03 02:20:04;;;;;;;16.08;8.38;;;15.60;99.90;;;;;;4236855;28;20132;-64
2022/06/03 02:22:22;;;;;;;15.75;7.82;;;15.60;99.90;;;;;;4254703;27;20431;-63
2022/06/03 02:24:47;;;;;;;11.18;7.40;;;15.70;99.90;;;;;;4253744;27;20038;-62
2022/06/03 02:27:04;;;;;;;13.75;7.03;;;15.70;99.90;;;;;;4239769;27;20088;-63
2022/06/03 02:32:25;;;;;;;10.57;7.03;;;15.70;99.90;;;;;;4238741;27;20089;-63
2022/06/03 02:34:47;;;;;;;9.73;7.65;;;15.60;99.90;;;;;;4237158;28;20035;-63
2022/06/03 02:37:45;;;;;;;11.98;7.60;;;15.70;99.90;;;;;;4239275;27;20088;-62
2022/06/03 02:40:35;;;;;;;13.27;7.15;;;15.60;99.90;;;;;;4168970;28;20049;-65
2022/06/03 02:43:00;;;;;;;11.48;7.68;;;15.60;99.90;;;;;;4142070;28;20083;-63
2022/06/03 02:45:07;;;;;;;13.57;7.50;;;15.70;99.90;;;;;;4217484;27;20464;-62
2022/06/03 02:47:51;;;;;;;14.90;7.93;;;15.70;99.90;;;;;;4253702;27;20072;-64
2022/06/03 02:49:55;;;;;;;16.30;7.30;;;15.60;99.90;;;;;;4234424;27;20044;-63
2022/06/03 02:52:05;;;;;;;12.00;7.03;;;15.70;99.90;;;;;;4236253;27;20352;-62
2022/06/03 02:54:25;;;;;;;11.82;7.25;;;15.60;99.90;;;;;;4245428;27;20027;-62
2022/06/03 02:57:03;;;;;;;7.50;6.65;;;15.70;99.90;;;;;;4250926;27;20043;-61
2022/06/03 02:59:13;;;;;;;9.52;7.95;;;15.80;99.90;;;;;;4234158;28;20052;-61
2022/06/03 03:01:38;;;;;;;11.40;7.45;;;16.00;99.90;;;;;;4252046;27;20103;-62
2022/06/03 03:03:45;;;;;;;10.93;7.90;;;16.20;99.90;;;;;;4253883;27;20427;-62
2022/06/03 03:06:17;;;;;;;11.15;7.72;;;16.40;99.90;;;;;;4254960;27;20084;-61
2022/06/03 03:08:27;;;;;;;11.32;7.60;;;16.50;99.90;;;;;;4253817;27;20103;-63
2022/06/03 03:10:43;;;;;;;15.70;7.90;;;16.60;99.90;;;;;;4249359;27;20059;-61
2022/06/03 03:13:24;;;;;;;9.20;6.57;;;16.70;99.90;;;;;;4241449;27;20072;-62
2022/06/03 03:15:52;;;;;;;8.48;7.05;;;16.80;99.90;;;;;;4201874;27;20136;-63
2022/06/03 03:18:12;;;;;;;8.20;6.97;;;17.10;99.90;;;;;;4206766;28;20101;-63
2022/06/03 03:21:01;;;;;;;10.57;6.93;;;17.40;99.90;;;;;;4225691;28;20036;-62
2022/06/03 03:23:05;;;;;;;10.25;6.68;;;17.60;99.90;;;;;;4180178;28;20061;-62
2022/06/03 03:25:31;;;;;;;10.35;6.70;;;17.90;99.90;;;;;;4224984;28;20035;-62
2022/06/03 03:27:56;;;;;;;9.20;5.70;;;18.00;99.90;;;;;;4226136;28;20019;-63
2022/06/03 03:30:38;;;;;;;12.52;6.65;;;18.10;99.90;;;;;;4223394;27;20031;-62
2022/06/03 03:33:08;;;;;;;11.13;5.95;;;18.10;99.90;;;;;;4206407;28;20074;-62
2022/06/03 03:35:30;;;;;;;8.95;6.32;;;18.10;99.90;;;;;;4224890;28;20028;-63
2022/06/03 03:37:56;;;;;;;8.38;5.93;;;18.10;99.90;;;;;;4224951;28;20043;-62
2022/06/03 03:40:22;;;;;;;7.47;5.25;;;18.00;99.90;;;;;;4237936;27;20043;-62
2022/06/03 03:42:32;;;;;;;9.52;4.97;;;17.90;99.90;;;;;;4228795;27;20080;-62
2022/06/03 03:44:37;;;;;;;7.63;5.85;;;18.00;99.90;;;;;;4227508;27;20501;-61
2022/06/03 03:47:00;;;;;;;7.65;5.50;;;18.10;99.90;;;;;;4224900;28;20007;-62
2022/06/03 03:49:29;;;;;;;10.20;5.57;;;18.20;99.90;;;;;;4209578;27;20032;-62
2022/06/03 03:51:39;;;;;;;10.25;5.68;;;18.30;99.90;;;;;;4207557;28;20580;-62
2022/06/03 03:54:05;;;;;;;11.32;5.43;;;18.40;99.90;;;;;;4220821;27;20040;-64
2022/06/03 03:56:27;;;;;;;9.52;5.07;;;18.60;99.90;;;;;;4228423;27;20027;-62
2022/06/03 03:59:20;;;;;;;8.20;5.10;;;18.60;99.90;;;;;;4226734;27;20035;-62
2022/06/03 04:01:38;;;;;;;7.88;4.15;;;18.90;99.90;;;;;;4187244;27;20461;-62
2022/06/03 04:04:15;;;;;;;9.05;4.40;;;19.10;99.90;;;;;;4226596;27;20064;-63
2022/06/03 04:06:22;;;;;;;7.82;4.18;;;19.30;99.90;;;;;;4232285;27;20027;-64
2022/06/03 04:08:51;;;;;;;7.75;4.70;;;19.50;99.90;;;;;;4230102;27;20072;-63
2022/06/03 04:11:31;;;;;;;7.65;3.95;;;19.80;99.90;;;;;;4231396;27;20581;-63
2022/06/03 04:14:03;;;;;;;7.18;3.92;;;19.90;99.90;;;;;;4229753;27;20043;-63
2022/06/03 04:16:38;;;;;;;9.07;4.00;;;20.20;99.90;;;;;;4230875;27;20072;-63
2022/06/03 04:19:09;;;;;;;8.20;4.10;;;20.40;99.90;;;;;;4227761;27;20035;-63
2022/06/03 04:21:58;;;;;;;5.05;3.40;;;20.80;99.90;;;;;;4229592;27;20036;-63
2022/06/03 04:24:28;;;;;;;6.05;3.72;;;21.20;99.90;;;;;;4178840;27;20092;-62
2022/06/03 04:27:07;;;;;;;6.60;3.67;;;21.60;99.90;;;;;;4183989;27;20035;-62
2022/06/03 04:29:37;;;;;;;8.38;3.40;;;21.90;99.90;;;;;;4215554;28;20463;-63
2022/06/03 04:32:03;;;;;;;5.28;3.22;;;22.10;99.90;;;;;;4225904;27;20100;-62
2022/06/03 04:34:13;;;;;;;6.15;3.72;;;22.20;99.90;;;;;;4229694;27;20650;-62
2022/06/03 04:36:48;;;;;;;11.75;4.07;;;22.20;99.90;;;;;;4235375;27;20700;-63
2022/06/03 04:39:10;;;;;;;4.80;3.70;;;22.20;99.90;;;;;;4154012;28;20042;-63
2022/06/03 04:41:54;;;;;;;12.45;4.05;;;22.30;99.90;;;;;;4228882;27;20051;-64
2022/06/03 04:44:33;;;;;;;6.75;3.75;;;22.40;99.90;;;;;;4206439;28;20810;-62
2022/06/03 04:46:34;;;;;;;5.65;3.88;;;22.50;99.90;;;;;;4207740;28;20070;-63
2022/06/03 04:48:54;;;;;;;6.28;3.38;;;22.70;99.90;;;;;;4213738;27;20628;-64
2022/06/03 04:51:28;;;;;;;8.20;3.30;;;22.90;99.90;;;;;;4230958;27;20076;-64
2022/06/03 04:53:56;;;;;;;6.07;3.00;;;23.10;99.90;;;;;;4224341;27;20487;-63
2022/06/03 04:56:37;;;;;;;5.35;3.30;;;23.30;99.90;;;;;;4223157;28;20032;-63
2022/06/03 04:59:03;;;;;;;8.18;3.65;;;23.30;99.90;;;;;;4223486;28;20104;-63
2022/06/03 05:01:38;;;;;;;7.57;3.72;;;23.30;99.90;;;;;;4222811;28;20031;-63
2022/06/03 05:04:11;;;;;;;5.72;3.58;;;23.30;99.90;;;;;;4224288;28;20777;-63
2022/06/03 05:06:33;;;;;;;8.13;3.08;;;23.30;99.90;;;;;;4222792;28;20057;-63
2022/06/03 05:08:49;;;;;;;8.57;3.95;;;23.20;99.90;;;;;;4223342;28;20446;-63
2022/06/03 05:11:28;;;;;;;12.15;4.13;;;23.00;99.90;;;;;;4223413;28;20970;-64
2022/06/03 05:13:56;;;;;;;7.35;3.63;;;23.10;99.90;;;;;;4222449;28;20081;-63
2022/06/03 05:16:06;;;;;;;7.10;3.33;;;23.40;99.90;;;;;;4224358;28;20039;-63
2022/06/03 05:18:23;;;;;;;6.00;3.25;;;;;;;;;;4223057;28;20076;-63
2022/06/03 05:20:27;;;;;;;11.48;4.10;;;;;;;;;;4223998;28;20031;-63
2022/06/03 05:23:04;;;;;;;10.68;3.42;;;;;;;;;;4222524;28;20100;-63
2022/06/03 05:25:18;;;;;;;6.25;3.33;;;;;;;;;;4155296;28;20057;-63
2022/06/03 05:27:22;;;;;;;3.70;3.20;;;;;;;;;;4198766;28;20112;-63
2022/06/03 05:29:33;;;;;;;5.03;3.38;;;;;;;;;;4223921;28;20024;-64
2022/06/03 05:31:53;;;;;;;8.23;3.53;;;;;;;;;;4222846;28;20036;-62
2022/06/03 05:33:58;;;;;;;8.43;3.20;;;;;;;;;;4223521;28;20079;-63
2022/06/03 05:36:24;;;;;;;7.80;2.90;;;;;;;;;;4222454;28;20058;-64
2022/06/03 05:38:44;;;;;;;5.57;2.92;;;;;;;;;;4223542;28;20039;-64
2022/06/03 05:40:45;;;;;;;6.47;3.65;;;;;;;;;;4222802;28;20044;-63
2022/06/03 05:42:47;;;;;;;5.55;3.08;;;;;;;;;;4223461;28;20032;-64
2022/06/03 05:44:48;;;;;;;6.63;3.35;;;;;;;;;;4222117;28;20730;-64
2022/06/03 05:46:59;;;;;;;4.63;3.15;;;;;;;;;;4223619;28;20445;-63
2022/06/03 05:49:09;;;;;;;8.10;2.95;;;;;;;;;;4222409;28;20036;-64
2022/06/03 05:51:29;;;;;;;6.88;3.40;;;;;;;;;;4223900;28;20035;-64
2022/06/03 05:53:40;;;;;;;6.15;3.00;;;;;;;;;;4222380;28;20023;-63
2022/06/03 05:55:48;;;;;;;4.03;2.45;;;;;;;;;;4223944;28;20035;-64
2022/06/03 05:57:52;;;;;;;7.63;3.38;;;;;;;;;;4222540;28;20526;-64
2022/06/03 06:00:02;;;;;;;8.07;2.95;;;;;;;;;;4223768;28;20084;-64
2022/06/03 06:02:09;;;;;;;5.07;2.78;;;;;;;;;;4222695;28;20020;-64
2022/06/03 06:04:18;;;;;;;4.63;3.17;;;;;;;;;;4223668;28;20032;-64
2022/06/03 06:06:23;;;;;;;7.15;3.13;;;;;;;;;;4221736;28;20047;-63
2022/06/03 06:09:03;;;;;;;14.13;3.30;;;;;;;;;;4223803;28;20782;-64
2022/06/03 06:11:13;;;;;;;21.08;5.93;;;;;;;;;;4153448;28;20072;-64
2022/06/03 06:13:26;;;;;;;26.02;6.47;;;;;;;;;;4154457;28;20087;-64
2022/06/03 06:15:46;;;;;;;25.13;6.47;;;;;;;;;;4161087;28;20485;-64
2022/06/03 06:17:48;;;;;;;;;;;;;;;;;;4223367;28;20088;-64
2022/06/03 06:19:52;;;;;;;41.33;8.15;;;;;;;;;;4222407;28;19916;-63
2022/06/03 06:22:07;;;;;;;36.08;6.38;;;;;;;;;;4223059;28;20032;-64
2022/06/03 06:24:09;;;;;;;28.17;6.78;;;;;;;;;;4222531;28;20081;-64
2022/06/03 06:26:10;;;;;;;30.80;7.30;;;;;;;;;;4223404;28;20088;-64
2022/06/03 06:28:30;;;;;;;31.17;8.48;;;;;;;;;;4222260;28;20031;-64
2022/06/03 06:30:31;;;;;;;29.38;6.53;;;;;;;;;;4223819;28;20023;-64
2022/06/03 06:32:42;;;;;;;27.33;6.97;;;;;;;;;;4221424;28;20458;-63
2022/06/03 06:34:44;;;;;;;28.42;6.97;;;;;;;;;;4223069;28;20085;-63
2022/06/03 06:36:54;;;;;;;23.30;5.78;;;;;;;;;;4222086;28;20093;-63
2022/06/03 06:39:32;;;;;;;18.67;5.72;;;23.80;99.90;;;;;;4223580;28;20043;-64
2022/06/03 06:42:15;;;;;;;32.15;7.50;;;25.30;97.50;;;;;;4203941;28;20043;-63
2022/06/03 06:44:37;;;;;;;25.52;6.15;;;25.00;98.10;;;;;;4218365;28;20445;-63
2022/06/03 06:46:44;;;;;;;21.02;6.35;;;25.10;98.90;;;;;;4225415;28;20104;-63
2022/06/03 06:49:09;;;;;;;18.20;6.20;;;25.10;99.00;;;;;;4224913;28;20100;-62
2022/06/03 06:51:24;;;;;;;16.25;6.13;;;24.80;99.90;;;;;;4226640;28;20097;-63
2022/06/03 06:54:01;;;;;;;15.73;5.88;;;24.60;99.90;;;;;;4224636;28;20036;-63
2022/06/03 06:56:27;;;;;;;16.30;6.72;;;24.70;99.90;;;;;;4226299;28;20036;-63
2022/06/03 06:58:42;;;;;;;17.95;7.90;;;24.70;99.90;;;;;;4224634;28;20076;-63
2022/06/03 07:00:46;;;;;;;19.55;6.93;;;24.40;99.90;;;;;;4208052;28;20048;-64
2022/06/03 07:02:52;;;;;;;14.27;6.15;;;24.20;99.90;;;;;;4225102;28;20097;-63
2022/06/03 07:05:06;;;;;;;13.65;5.93;;;24.30;99.90;;;;;;4226505;28;20104;-65
2022/06/03 07:07:28;;;;;;;16.05;6.38;;;24.40;99.90;;;;;;4224932;28;20028;-64
2022/06/03 07:09:29;;;;;;;20.05;6.57;;;24.40;99.90;;;;;;4207243;28;20097;-64
2022/06/03 07:12:13;;;;;;;14.80;6.97;;;24.20;99.90;;;;;;4225336;28;20077;-63
2022/06/03 07:14:20;;;;;;;14.85;6.43;;;24.10;99.90;;;;;;4225501;28;20775;-63
2022/06/03 07:21:38;;;;;;;8.27;4.40;;;24.40;99.90;;;;;;4225535;28;20040;-64
2022/06/03 07:24:00;;;;;;;9.48;4.00;;;24.40;99.90;;;;;;4224629;28;20077;-64
2022/06/03 07:26:14;;;;;;;12.93;4.43;;;24.40;99.90;;;;;;4225751;28;20044;-63
2022/06/03 07:28:33;;;;;;;9.52;4.68;;;24.80;99.90;;;;;;4223391;28;20032;-64
2022/06/03 07:30:43;;;;;;;8.27;5.05;;;24.60;99.90;;;;;;4225160;28;20043;-64
2022/06/03 07:33:06;;;;;;;8.55;4.32;;;24.30;99.90;;;;;;4224002;28;20441;-64
2022/06/03 07:35:37;;;;;;;7.40;4.22;;;24.20;99.90;;;;;;4225179;28;20491;-64
2022/06/03 07:38:01;;;;;;;8.80;3.72;;;24.00;99.90;;;;;;4214474;28;20043;-64
2022/06/03 07:40:16;;;;;;;11.00;4.45;;;24.30;99.90;;;;;;4224059;28;20036;-64
2022/06/03 07:42:49;;;;;;;6.72;4.63;;;24.40;99.90;;;;;;4224894;28;20537;-64
2022/06/03 07:45:08;;;;;;;6.05;4.25;;;24.80;99.90;;;;;;4192733;28;20036;-64
2022/06/03 07:47:11;;;;;;;7.20;4.72;;;25.00;99.90;;;;;;4225386;28;20467;-63
2022/06/03 07:49:15;;;;;;;6.80;4.72;;;25.00;99.90;;;;;;4224501;28;20037;-63
2022/06/03 07:51:33;;;;;;;6.80;4.20;;;25.10;99.90;;;;;;4225119;28;20020;-64
2022/06/03 07:53:46;;;;;;;6.15;4.65;;;25.10;99.90;;;;;;4224393;28;20036;-64
2022/06/03 07:55:56;;;;;;;8.20;4.72;;;25.10;99.90;;;;;;4224682;28;20044;-63
2022/06/03 07:58:06;;;;;;;12.90;7.40;;;24.70;99.90;;;;;;4223990;28;20016;-64
2022/06/03 08:00:16;;;;;;;6.63;4.63;;;24.60;99.90;;;;;;4224997;28;20031;-63
2022/06/03 08:02:20;;;;;;;7.15;4.68;;;24.50;99.90;;;;;;4224255;28;20084;-63
2022/06/03 08:04:48;;;;;;;6.95;3.70;;;24.80;99.90;;;;;;4206499;28;20074;-63
2022/06/03 08:11:43;;;;;;;10.48;4.72;;;24.60;99.90;;;;;;4224157;28;20023;-63
2022/06/03 08:14:03;;;;;;;5.80;4.10;;;24.60;99.90;;;;;;4224756;28;20076;-63
2022/06/03 08:16:10;;;;;;;6.55;3.42;;;24.70;99.90;;;;;;4223811;28;20471;-64
2022/06/03 08:18:16;;;;;;;7.90;3.42;;;24.60;99.90;;;;;;4224746;28;20105;-64
2022/06/03 08:20:20;;;;;;;5.28;3.92;;;24.90;99.90;;;;;;4222945;28;20382;-64
2022/06/03 08:22:24;;;;;;;9.02;4.13;;;25.00;99.90;;;;;;4224455;28;20035;-64
2022/06/03 08:24:30;;;;;;;7.35;3.67;;;25.30;99.90;;;;;;4223498;28;20028;-64
2022/06/03 08:26:33;;;;;;;6.20;4.05;;;25.40;99.90;;;;;;4223970;28;20940;-65
2022/06/03 08:28:35;;;;;;;4.40;3.72;;;25.40;99.90;;;;;;4223290;28;20031;-65
2022/06/03 08:30:39;;;;;;;4.70;3.95;;;25.50;99.90;;;;;;4224043;28;20047;-63
2022/06/03 08:32:47;;;;;;;4.80;3.78;;;25.50;99.90;;;;;;4223327;28;20028;-65
2022/06/03 08:34:53;;;;;;;5.47;3.60;;;25.40;99.90;;;;;;4224068;28;20051;-63
2022/06/03 08:36:55;;;;;;;6.80;3.90;;;25.20;99.90;;;;;;4223075;28;20442;-62
2022/06/03 08:39:16;;;;;;;4.47;3.60;;;25.10;99.90;;;;;;4223560;28;20020;-64
2022/06/03 08:42:11;;;;;;;5.90;3.70;;;25.10;99.90;;;;;;4223539;28;20040;-64
2022/06/03 08:45:00;;;;;;;4.97;3.10;;;25.30;99.90;;;;;;4155736;28;20068;-63
2022/06/03 08:47:15;;;;;;;4.05;3.75;;;25.30;99.90;;;;;;4210432;28;20132;-64
2022/06/03 08:49:20;;;;;;;5.78;3.53;;;25.40;99.90;;;;;;4223397;28;20047;-63
2022/06/03 08:51:31;;;;;;;6.75;4.13;;;25.50;99.90;;;;;;4223164;28;20073;-64
2022/06/03 08:54:02;;;;;;;10.07;4.05;;;25.30;99.90;;;;;;4223810;28;20043;-63
2022/06/03 08:56:10;;;;;;;9.10;4.28;;;25.40;99.90;;;;;;4222753;28;20047;-63
2022/06/03 08:58:24;;;;;;;6.07;4.28;;;25.50;99.90;;;;;;4223170;28;20072;-65
2022/06/03 09:00:42;;;;;;;5.13;4.25;;;25.50;99.90;;;;;;4222803;28;20047;-64
2022/06/03 09:02:55;;;;;;;8.55;3.80;;;25.60;99.90;;;;;;4204387;28;20036;-64
2022/06/03 09:05:02;;;;;;;7.82;3.45;;;25.50;99.90;;;;;;4224167;28;20027;-64
2022/06/03 09:07:06;;;;;;;10.48;4.82;;;25.50;99.90;;;;;;4223267;28;20044;-64
2022/06/03 09:09:18;;;;;;;9.55;4.30;;;25.60;99.90;;;;;;4222363;28;20035;-64
2022/06/03 09:11:28;;;;;;;7.22;4.55;;;25.60;99.90;;;;;;4222625;28;20128;-64
2022/06/03 09:13:52;;;;;;;10.63;5.50;;;25.60;99.90;;;;;;4223760;28;20353;-63
2022/06/03 09:15:54;;;;;;;6.60;5.00;;;25.70;99.90;;;;;;4221785;28;20039;-63
2022/06/03 09:18:13;;;;;;;7.25;3.75;;;25.70;99.90;;;;;;4223714;28;20168;-63
2022/06/03 09:20:24;;;;;;;8.45;4.07;;;25.80;99.90;;;;;;4222168;28;20043;-63
2022/06/03 09:22:31;;;;;;;4.18;3.58;;;25.80;99.90;;;;;;4206496;28;20028;-63
2022/06/03 09:24:37;;;;;;;14.10;4.47;;;;;;;;;;4222427;28;20388;-63
2022/06/03 09:26:50;;;;;;;5.88;4.10;;;;;;;;;;4223605;28;20024;-64
2022/06/03 09:28:53;;;;;;;9.00;4.03;;;;;;;;;;4222073;28;20092;-63
2022/06/03 09:30:55;;;;;;;4.95;3.80;;;;;;;;;;4223055;28;20144;-63
2022/06/03 09:32:57;;;;;;;9.18;4.43;;;;;;;;;;4223528;28;20111;-65
2022/06/03 09:35:05;;;;;;;7.65;3.30;;;;;;;;;;4223718;28;20104;-64
2022/06/03 09:37:12;;;;;;;4.30;3.08;;;25.80;99.90;;;;;;4223012;28;20517;-63
2022/06/03 09:39:17;;;;;;;5.78;3.30;;;26.00;99.90;;;;;;4223222;28;20024;-64
2022/06/03 09:41:24;;;;;;;6.72;3.72;;;26.00;99.70;;;;;;4222890;28;20085;-63
2022/06/03 09:43:35;;;;;;;4.68;3.78;;;26.00;99.80;;;;;;4222509;28;20495;-63
2022/06/03 09:45:36;;;;;;;7.03;3.42;;;;;;;;;;4223406;28;20140;-64
2022/06/03 09:47:38;;;;;;;5.65;3.78;;;;;;;;;;4221646;28;21296;-64
2022/06/03 09:49:39;;;;;;;6.22;3.33;;;;;;;;;;4223854;28;20027;-64
2022/06/03 09:51:59;;;;;;;5.05;3.38;;;;;;;;;;4222504;28;20352;-64
2022/06/03 09:54:00;;;;;;;6.25;4.57;;;;;;;;;;4204973;28;20040;-64
2022/06/03 09:56:03;;;;;;;8.75;3.40;;;;;;;;;;4222218;28;20032;-64
2022/06/03 09:58:06;;;;;;;5.15;3.58;;;;;;;;;;4222587;28;20024;-63
2022/06/03 10:00:28;;;;;;;6.68;3.95;;;;;;;;;;4221647;28;20093;-62
2022/06/03 10:02:31;;;;;;;12.20;3.88;;;26.30;99.00;;;;;;4222112;28;20039;-62
2022/06/03 10:04:33;;;;;;;6.95;3.30;;;26.20;99.10;;;;;;4222141;28;20077;-62
2022/06/03 10:06:43;;;;;;;7.03;3.15;;;26.30;99.30;;;;;;4223416;28;20140;-63
2022/06/03 10:13:24;;;;;;;5.85;2.42;;;26.50;98.60;;;;;;4222904;28;20066;-64
2022/06/03 10:15:38;;;;;;;5.00;3.13;;;26.40;98.20;;;;;;4223488;28;20491;-64
2022/06/03 10:17:39;;;;;;;3.70;3.03;;;26.40;98.00;;;;;;4221774;28;20028;-64
2022/06/03 10:19:41;;;;;;;3.72;3.15;;;;;;;;;;4204840;28;20044;-63
2022/06/03 10:21:50;;;;;;;6.03;2.83;;;;;;;;;;4224366;28;20039;-64
2022/06/03 10:23:52;;;;;;;3.60;2.60;;;;;;;;;;4226353;28;20081;-63
2022/06/03 10:25:58;;;;;;;2.90;2.63;;;;;;;;;;4225515;28;20069;-64
2022/06/03 10:28:03;;;;;;;5.10;3.10;;;;;;;;;;4226573;28;20053;-63
2022/06/03 10:30:06;;;;;;;3.78;2.45;;;;;;;;;;4207178;28;20540;-63
2022/06/03 10:32:07;;;;;;;3.20;2.80;;;;;;;;;;4226671;28;20057;-64
2022/06/03 10:34:10;;;;;;;3.70;2.15;;;;;;;;;;4225084;28;20028;-64
2022/06/03 10:36:12;;;;;;;3.72;2.47;;;;;;;;;;4225954;28;20463;-64
2022/06/03 10:38:16;;;;;;;5.65;2.42;;;;;;;;;;4225247;28;20101;-64
2022/06/03 10:40:19;;;;;;;6.93;2.35;;;;;;;;;;4226335;28;20093;-64
2022/06/03 10:42:22;;;;;;;5.82;1.92;;;;;;;;;;4225120;28;20051;-63
2022/06/03 10:44:24;;;;;;;7.13;2.33;;;;;;;;;;4225702;28;20445;-63
2022/06/03 10:46:25;;;;;;;6.90;2.40;;;;;;;;;;4226036;28;20057;-64
2022/06/03 10:48:29;;;;;;;4.32;1.90;;;;;;;;;;4224867;28;20035;-63
2022/06/03 10:50:34;;;;;;;2.58;2.38;;;;;;;;;;4226283;28;20032;-62
2022/06/03 11:02:06;;;;;;;2.80;2.30;;;;;;;;;;4226335;28;20051;-63
2022/06/03 11:04:08;;;;;;;5.40;2.05;;;;;;;;;;4225191;28;20024;-64
2022/06/03 11:06:11;;;;;;;3.70;2.55;;;;;;;;;;4225840;28;20081;-63
2022/06/03 11:08:13;;;;;;;3.85;2.90;;;;;;;;;;4225134;28;20527;-65
2022/06/03 11:10:15;;;;;;;4.55;2.67;;;;;;;;;;4225227;28;20101;-62
2022/06/03 11:12:22;;;;;;;2.20;2.00;;;;;;;;;;4225756;28;20027;-64
2022/06/03 11:14:24;;;;;;;4.55;1.85;;;;;;;;;;4225518;28;20069;-63
2022/06/03 11:16:26;;;;;;;6.50;2.03;;;;;;;;;;4225786;28;20105;-63
2022/06/03 11:18:32;;;;;;;3.20;2.30;;;;;;;;;;4223766;28;20098;-63
2022/06/03 11:20:36;;;;;;;4.55;2.45;;;;;;;;;;4224991;28;20100;-63
2022/06/03 11:22:40;;;;;;;4.60;2.40;;;;;;;;;;4206064;28;20052;-64
2022/06/03 11:24:42;;;;;;;3.08;2.10;;;;;;;;;;4207177;28;20421;-63
2022/06/03 11:26:44;;;;;;;4.03;2.67;;;;;;;;;;4224391;28;20778;-64
2022/06/03 11:28:47;;;;;;;8.40;2.67;;;;;;;;;;4225698;28;20020;-63
2022/06/03 11:31:07;;;;;;;9.05;2.42;;;;;;;;;;4224817;28;20028;-64
2022/06/03 11:33:08;;;;;;;;;;;;;;;;;;4225472;28;20101;-63
2022/06/03 11:35:15;;;;;;;3.05;2.33;;;;;;;;;;4224004;28;19908;-63
2022/06/03 11:37:26;;;;;;;3.80;2.67;;;;;;;;;;4225794;28;20073;-64
2022/06/03 11:39:37;;;;;;;3.88;2.35;;;;;;;;;;4224504;28;20785;-64
2022/06/03 11:41:42;;;;;;;3.22;2.30;;;;;;;;;;4225766;28;20163;-63
2022/06/03 11:43:58;;;;;;;2.25;2.00;;;;;;;;;;4224632;28;20082;-64
2022/06/03 11:46:07;;;;;;;3.17;2.30;;;26.60;98.00;;;;;;4225631;28;20035;-64
2022/06/03 11:48:11;;;;;;;3.92;2.10;;;;;;;;;;4223992;28;20085;-64
2022/06/03 11:50:14;;;;;;;3.15;1.98;;;;;;;;;;4225124;28;20084;-63
2022/06/03 11:52:16;;;;;;;4.53;1.67;;;;;;;;;;4223500;28;20057;-64
2022/06/03 11:54:19;;;;;;;3.13;2.20;;;;;;;;;;4225505;28;20027;-64
2022/06/03 11:56:23;;;;;;;3.90;1.98;;;;;;;;;;4224145;28;20020;-64
2022/06/03 11:58:37;;;;;;;4.55;2.28;;;;;;;;;;4224842;28;20039;-64
2022/06/03 12:00:42;;;;;;;4.30;2.60;;;;;;;;;;4223263;28;20112;-66
2022/06/03 12:02:54;;;;;;;4.45;2.20;;;;;;;;;;4225320;28;20023;-63
2022/06/03 12:05:13;;;;;;;3.30;2.40;;;;;;;;;;4223273;28;20108;-63
2022/06/03 12:07:27;;;;;;;3.47;2.00;;;;;;;;;;4224775;28;20047;-64
2022/06/03 12:09:38;;;;;;;2.75;1.90;;;;;;;;;;4222957;28;20059;-63
2022/06/03 12:14:36;;;;;;;4.05;2.13;;;;;;;;;;4155421;28;20029;-63
2022/06/03 12:16:55;;;;;;;5.80;2.50;;;;;;;;;;4194126;28;20039;-65
2022/06/03 12:18:57;;;;;;;5.53;1.92;;;;;;;;;;4223535;28;20027;-63
2022/06/03 12:21:00;;;;;;;3.85;2.05;;;;;;;;;;4206143;28;20055;-63
2022/06/03 12:23:13;;;;;;;3.28;2.08;;;;;;;;;;4223893;28;20579;-64
2022/06/03 12:25:38;;;;;;;2.42;2.17;;;;;;;;;;4225182;28;20072;-64
2022/06/03 12:27:40;;;;;;;4.60;2.10;;;;;;;;;;4213166;28;20039;-63
2022/06/03 12:30:02;;;;;;;4.90;2.30;;;;;;;;;;4224184;28;20516;-63
2022/06/03 12:32:30;;;;;;;5.80;2.63;;;;;;;;;;4207887;28;20043;-63
2022/06/03 12:34:31;;;;;;;4.90;1.80;;;;;;;;;;4219487;28;20101;-63
2022/06/03 12:36:50;;;;;;;4.88;2.20;;;;;;;;;;4222251;28;20096;-63
2022/06/03 12:38:56;;;;;;;3.80;2.03;;;;;;;;;;4223104;28;20574;-63
2022/06/03 12:40:59;;;;;;;11.02;2.30;;;;;;;;;;4222765;28;20063;-63
2022/06/03 12:43:00;;;;;;;4.00;2.13;;;;;;;;;;4223443;28;20077;-62
2022/06/03 12:45:03;;;;;;;5.15;2.13;;;;;;;;;;4222856;28;20976;-62
2022/06/03 12:47:19;;;;;;;4.95;2.33;;;;;;;;;;4224190;28;20043;-62
2022/06/03 12:49:32;;;;;;;3.35;2.20;;;27.50;91.70;;;;;;4223100;28;20091;-63
2022/06/03 12:51:54;;;;;;;7.80;2.40;;;;;;;;;;4224233;28;20089;-62
2022/06/03 12:54:18;;;;;;;3.08;2.20;;;;;;;;;;4223686;28;20131;-63
2022/06/03 12:56:40;;;;;;;8.05;2.20;;;;;;;;;;4210456;28;20044;-63
2022/06/03 12:58:48;;;;;;;7.30;2.72;;;;;;;;;;4206572;28;20557;-65
2022/06/03 13:00:50;;;;;;;4.07;2.28;;;;;;;;;;4223284;28;20495;-63
2022/06/03 13:02:52;;;;;;;4.93;1.90;;;;;;;;;;4222773;28;20092;-63